sensor_id;sensor_type;location;lat;lon;timestamp;pressure;altitude;pressure_sealevel;temperature;humidity
34925;BME280;21130;51.728;8.748;2023-06-10T00:02:32;100341.66;;;14.16;100.00
34925;BME280;21130;51.728;8.748;2023-06-10T00:05:16;100342.78;;;14.15;100.00
34925;BME280;21130;51.728;8.748;2023-06-10T00:08:03;100338.31;;;14.19;100.00
34925;BME280;21130;51.728;8.748;2023-06-10T00:10:49;100334.41;;;14.15;100.00
34925;BME280;21130;51.728;8.748;2023-06-10T00:13:17;100338.00;;;14.10;100.00
34925;BME280;21130;51.728;8.748;2023-06-10T00:15:43;100333.81;;;14.08;100.00
34925;BME280;21130;51.728;8.748;2023-06-10T00:18:11;100334.06;;;14.06;100.00
34925;BME280;21130;51.728;8.748;2023-06-10T00:20:37;100341.59;;;14.00;100.00
34925;BME280;21130;51.728;8.748;2023-06-10T00:23:04;100333.44;;;13.94;100.00
34925;BME280;21130;51.728;8.748;2023-06-10T00:25:33;100341.00;;;13.93;100.00
34925;BME280;21130;51.728;8.748;2023-06-10T00:28:00;100330.38;;;13.90;100.00
34925;BME280;21130;51.728;8.748;2023-06-10T00:30:26;100337.91;;;13.90;100.00
34925;BME280;21130;51.728;8.748;2023-06-10T00:32:52;100330.63;;;13.83;100.00
34925;BME280;21130;51.728;8.748;2023-06-10T00:35:20;100332.03;;;13.86;100.00
34925;BME280;21130;51.728;8.748;2023-06-10T00:37:46;100335.06;;;13.79;100.00
34925;BME280;21130;51.728;8.748;2023-06-10T00:40:13;100331.72;;;13.77;100.00
34925;BME280;21130;51.728;8.748;2023-06-10T00:42:39;100330.81;;;13.72;100.00
34925;BME280;21130;51.728;8.748;2023-06-10T00:45:06;100333.31;;;13.68;100.00
34925;BME280;21130;51.728;8.748;2023-06-10T00:47:33;100335.28;;;13.68;100.00
34925;BME280;21130;51.728;8.748;2023-06-10T00:50:01;100333.28;;;13.63;100.00
34925;BME280;21130;51.728;8.748;2023-06-10T00:52:29;100339.16;;;13.67;100.00
34925;BME280;21130;51.728;8.748;2023-06-10T00:54:56;100333.66;;;13.77;100.00
34925;BME280;21130;51.728;8.748;2023-06-10T00:57:24;100340.38;;;13.81;100.00
34925;BME280;21130;51.728;8.748;2023-06-10T00:59:51;100335.94;;;13.85;100.00
34925;BME280;21130;51.728;8.748;2023-06-10T01:02:18;100339.56;;;13.86;100.00
34925;BME280;21130;51.728;8.748;2023-06-10T01:04:44;100338.13;;;13.78;100.00
34925;BME280;21130;51.728;8.748;2023-06-10T01:07:17;100340.88;;;13.73;100.00
34925;BME280;21130;51.728;8.748;2023-06-10T01:09:53;100337.22;;;13.67;100.00
34925;BME280;21130;51.728;8.748;2023-06-10T01:12:30;100335.78;;;13.59;100.00
34925;BME280;21130;51.728;8.748;2023-06-10T01:14:58;100336.88;;;13.58;100.00
34925;BME280;21130;51.728;8.748;2023-06-10T01:17:24;100331.91;;;13.66;100.00
34925;BME280;21130;51.728;8.748;2023-06-10T01:19:56;100340.38;;;13.86;100.00
34925;BME280;21130;51.728;8.748;2023-06-10T01:22:24;100336.94;;;13.69;100.00
34925;BME280;21130;51.728;8.748;2023-06-10T01:24:54;100331.88;;;13.60;100.00
34925;BME280;21130;51.728;8.748;2023-06-10T01:27:26;100336.84;;;13.53;100.00
34925;BME280;21130;51.728;8.748;2023-06-10T01:30:00;100346.31;;;13.47;100.00
34925;BME280;21130;51.728;8.748;2023-06-10T01:32:33;100336.22;;;13.41;100.00
34925;BME280;21130;51.728;8.748;2023-06-10T01:35:02;100345.66;;;13.35;100.00
34925;BME280;21130;51.728;8.748;2023-06-10T01:37:30;100339.78;;;13.36;100.00
34925;BME280;21130;51.728;8.748;2023-06-10T01:39:59;100349.56;;;13.39;100.00
34925;BME280;21130;51.728;8.748;2023-06-10T01:42:27;100344.63;;;13.51;100.00
34925;BME280;21130;51.728;8.748;2023-06-10T01:44:54;100346.78;;;13.39;100.00
34925;BME280;21130;51.728;8.748;2023-06-10T01:47:20;100345.16;;;13.43;100.00
34925;BME280;21130;51.728;8.748;2023-06-10T01:49:47;100351.22;;;13.35;100.00
34925;BME280;21130;51.728;8.748;2023-06-10T01:52:13;100351.22;;;13.35;100.00
34925;BME280;21130;51.728;8.748;2023-06-10T01:54:41;100358.50;;;13.41;100.00
34925;BME280;21130;51.728;8.748;2023-06-10T01:57:08;100360.13;;;13.32;100.00
34925;BME280;21130;51.728;8.748;2023-06-10T01:59:35;100352.84;;;13.31;100.00
34925;BME280;21130;51.728;8.748;2023-06-10T02:02:03;100355.00;;;13.24;100.00
34925;BME280;21130;51.728;8.748;2023-06-10T02:04:30;100357.44;;;13.15;100.00
34925;BME280;21130;51.728;8.748;2023-06-10T02:06:56;100353.19;;;13.07;100.00
34925;BME280;21130;51.728;8.748;2023-06-10T02:09:23;100359.31;;;13.04;100.00
34925;BME280;21130;51.728;8.748;2023-06-10T02:11:51;100359.31;;;13.04;100.00
34925;BME280;21130;51.728;8.748;2023-06-10T02:14:17;100359.78;;;12.96;100.00
34925;BME280;21130;51.728;8.748;2023-06-10T02:16:43;100355.53;;;12.88;100.00
34925;BME280;21130;51.728;8.748;2023-06-10T02:19:12;100359.09;;;12.84;100.00
34925;BME280;21130;51.728;8.748;2023-06-10T02:21:38;100371.88;;;12.80;100.00
34925;BME280;21130;51.728;8.748;2023-06-10T02:24:05;100367.19;;;12.85;100.00
34925;BME280;21130;51.728;8.748;2023-06-10T02:26:32;100376.03;;;12.77;100.00
34925;BME280;21130;51.728;8.748;2023-06-10T02:28:59;100369.16;;;12.85;100.00
34925;BME280;21130;51.728;8.748;2023-06-10T02:31:26;100388.00;;;12.78;100.00
34925;BME280;21130;51.728;8.748;2023-06-10T02:33:54;100384.59;;;12.70;100.00
34925;BME280;21130;51.728;8.748;2023-06-10T02:36:21;100378.66;;;12.62;100.00
34925;BME280;21130;51.728;8.748;2023-06-10T02:39:07;100390.81;;;12.56;100.00
34925;BME280;21130;51.728;8.748;2023-06-10T02:41:54;100392.19;;;12.53;100.00
34925;BME280;21130;51.728;8.748;2023-06-10T02:44:40;100387.25;;;12.60;100.00
34925;BME280;21130;51.728;8.748;2023-06-10T02:47:25;100392.47;;;12.51;100.00
34925;BME280;21130;51.728;8.748;2023-06-10T02:49:52;100396.03;;;12.47;100.00
34925;BME280;21130;51.728;8.748;2023-06-10T02:52:18;100387.34;;;12.43;100.00
34925;BME280;21130;51.728;8.748;2023-06-10T02:54:45;100388.97;;;12.39;100.00
34925;BME280;21130;51.728;8.748;2023-06-10T02:57:12;100383.84;;;12.31;100.00
34925;BME280;21130;51.728;8.748;2023-06-10T02:59:40;100387.16;;;12.28;100.00
34925;BME280;21130;51.728;8.748;2023-06-10T03:02:07;100388.00;;;12.28;100.00
34925;BME280;21130;51.728;8.748;2023-06-10T03:04:33;100390.22;;;12.26;100.00
34925;BME280;21130;51.728;8.748;2023-06-10T03:07:03;100384.91;;;12.25;100.00
34925;BME280;21130;51.728;8.748;2023-06-10T03:09:32;100382.19;;;12.30;100.00
34925;BME280;21130;51.728;8.748;2023-06-10T03:11:58;100388.47;;;12.20;100.00
34925;BME280;21130;51.728;8.748;2023-06-10T03:14:25;100380.34;;;12.19;100.00
34925;BME280;21130;51.728;8.748;2023-06-10T03:16:53;100384.50;;;12.16;100.00
34925;BME280;21130;51.728;8.748;2023-06-10T03:19:20;100392.91;;;12.21;100.00
34925;BME280;21130;51.728;8.748;2023-06-10T03:21:49;100395.56;;;12.33;100.00
34925;BME280;21130;51.728;8.748;2023-06-10T03:24:16;100406.63;;;12.28;100.00
34925;BME280;21130;51.728;8.748;2023-06-10T03:26:42;100410.66;;;12.37;100.00
34925;BME280;21130;51.728;8.748;2023-06-10T03:29:09;100406.91;;;12.26;100.00
34925;BME280;21130;51.728;8.748;2023-06-10T03:31:35;100405.81;;;12.27;100.00
34925;BME280;21130;51.728;8.748;2023-06-10T03:34:03;100409.69;;;12.26;100.00
34925;BME280;21130;51.728;8.748;2023-06-10T03:36:30;100417.59;;;12.35;100.00
34925;BME280;21130;51.728;8.748;2023-06-10T03:38:56;100413.09;;;12.33;100.00
34925;BME280;21130;51.728;8.748;2023-06-10T03:41:23;100405.09;;;12.37;100.00
34925;BME280;21130;51.728;8.748;2023-06-10T03:43:50;100410.38;;;12.39;100.00
34925;BME280;21130;51.728;8.748;2023-06-10T03:46:17;100405.63;;;12.34;100.00
34925;BME280;21130;51.728;8.748;2023-06-10T03:48:44;100416.00;;;12.44;100.00
34925;BME280;21130;51.728;8.748;2023-06-10T03:51:13;100408.59;;;12.49;100.00
34925;BME280;21130;51.728;8.748;2023-06-10T03:53:40;100404.69;;;12.50;100.00
34925;BME280;21130;51.728;8.748;2023-06-10T03:56:06;100407.59;;;12.61;100.00
34925;BME280;21130;51.728;8.748;2023-06-10T03:58:33;100413.75;;;12.63;100.00
34925;BME280;21130;51.728;8.748;2023-06-10T04:00:59;100409.66;;;12.70;100.00
34925;BME280;21130;51.728;8.748;2023-06-10T04:03:25;100412.44;;;12.70;100.00
34925;BME280;21130;51.728;8.748;2023-06-10T04:05:52;100408.94;;;12.80;100.00
34925;BME280;21130;51.728;8.748;2023-06-10T04:08:20;100405.88;;;12.82;100.00
34925;BME280;21130;51.728;8.748;2023-06-10T04:10:47;100410.16;;;12.89;100.00
34925;BME280;21130;51.728;8.748;2023-06-10T04:13:13;100408.84;;;12.97;100.00
34925;BME280;21130;51.728;8.748;2023-06-10T04:16:00;100419.53;;;13.10;100.00
34925;BME280;21130;51.728;8.748;2023-06-10T04:18:27;100409.91;;;13.23;100.00
34925;BME280;21130;51.728;8.748;2023-06-10T04:20:55;100404.72;;;13.32;100.00
34925;BME280;21130;51.728;8.748;2023-06-10T04:23:23;100402.06;;;13.47;100.00
34925;BME280;21130;51.728;8.748;2023-06-10T04:25:51;100412.13;;;13.53;100.00
34925;BME280;21130;51.728;8.748;2023-06-10T04:28:17;100405.78;;;13.63;100.00
34925;BME280;21130;51.728;8.748;2023-06-10T04:30:44;100407.00;;;13.72;100.00
34925;BME280;21130;51.728;8.748;2023-06-10T04:33:11;100414.34;;;13.89;100.00
34925;BME280;21130;51.728;8.748;2023-06-10T04:35:37;100414.97;;;14.01;100.00
34925;BME280;21130;51.728;8.748;2023-06-10T04:38:03;100409.47;;;14.16;100.00
34925;BME280;21130;51.728;8.748;2023-06-10T04:40:31;100407.09;;;14.45;100.00
34925;BME280;21130;51.728;8.748;2023-06-10T04:42:58;100401.31;;;14.57;100.00
34925;BME280;21130;51.728;8.748;2023-06-10T04:45:24;100399.13;;;14.75;100.00
34925;BME280;21130;51.728;8.748;2023-06-10T04:47:51;100407.81;;;14.88;100.00
34925;BME280;21130;51.728;8.748;2023-06-10T04:50:19;100405.06;;;15.04;100.00
34925;BME280;21130;51.728;8.748;2023-06-10T04:52:45;100408.41;;;15.16;100.00
34925;BME280;21130;51.728;8.748;2023-06-10T04:55:12;100402.84;;;15.26;100.00
34925;BME280;21130;51.728;8.748;2023-06-10T04:57:40;100399.47;;;15.40;100.00
34925;BME280;21130;51.728;8.748;2023-06-10T05:00:07;100402.28;;;15.55;100.00
34925;BME280;21130;51.728;8.748;2023-06-10T05:02:34;100396.13;;;15.68;100.00
34925;BME280;21130;51.728;8.748;2023-06-10T05:05:00;100401.44;;;15.85;100.00
34925;BME280;21130;51.728;8.748;2023-06-10T05:07:26;100400.56;;;16.05;100.00
34925;BME280;21130;51.728;8.748;2023-06-10T05:09:53;100402.75;;;16.18;100.00
34925;BME280;21130;51.728;8.748;2023-06-10T05:12:20;100403.84;;;16.33;100.00
34925;BME280;21130;51.728;8.748;2023-06-10T05:14:47;100411.63;;;16.41;100.00
34925;BME280;21130;51.728;8.748;2023-06-10T05:17:14;100412.97;;;16.54;100.00
34925;BME280;21130;51.728;8.748;2023-06-10T05:19:41;100401.13;;;16.67;100.00
34925;BME280;21130;51.728;8.748;2023-06-10T05:22:08;100404.47;;;16.79;100.00
34925;BME280;21130;51.728;8.748;2023-06-10T05:24:35;100406.31;;;16.99;100.00
34925;BME280;21130;51.728;8.748;2023-06-10T05:27:01;100414.94;;;17.13;100.00
34925;BME280;21130;51.728;8.748;2023-06-10T05:29:28;100406.41;;;17.28;100.00
34925;BME280;21130;51.728;8.748;2023-06-10T05:31:56;100400.47;;;17.30;100.00
34925;BME280;21130;51.728;8.748;2023-06-10T05:34:25;100401.22;;;17.46;100.00
34925;BME280;21130;51.728;8.748;2023-06-10T05:36:51;100397.44;;;17.61;100.00
34925;BME280;21130;51.728;8.748;2023-06-10T05:39:18;100413.81;;;17.78;100.00
34925;BME280;21130;51.728;8.748;2023-06-10T05:41:46;100405.81;;;17.95;100.00
34925;BME280;21130;51.728;8.748;2023-06-10T05:44:12;100407.09;;;18.08;100.00
34925;BME280;21130;51.728;8.748;2023-06-10T05:46:38;100403.59;;;18.21;100.00
34925;BME280;21130;51.728;8.748;2023-06-10T05:49:06;100401.97;;;18.39;100.00
34925;BME280;21130;51.728;8.748;2023-06-10T05:51:33;100393.81;;;18.62;100.00
34925;BME280;21130;51.728;8.748;2023-06-10T05:54:01;100398.69;;;18.75;100.00
34925;BME280;21130;51.728;8.748;2023-06-10T05:56:30;100393.69;;;18.91;100.00
34925;BME280;21130;51.728;8.748;2023-06-10T05:58:57;100400.78;;;19.07;100.00
34925;BME280;21130;51.728;8.748;2023-06-10T06:01:23;100394.75;;;19.33;100.00
34925;BME280;21130;51.728;8.748;2023-06-10T06:03:49;100391.47;;;19.45;100.00
34925;BME280;21130;51.728;8.748;2023-06-10T06:06:18;100389.69;;;19.68;100.00
34925;BME280;21130;51.728;8.748;2023-06-10T06:08:45;100387.00;;;19.76;100.00
34925;BME280;21130;51.728;8.748;2023-06-10T06:11:12;100387.22;;;19.94;100.00
34925;BME280;21130;51.728;8.748;2023-06-10T06:13:38;100384.03;;;20.14;100.00
34925;BME280;21130;51.728;8.748;2023-06-10T06:16:06;100380.69;;;20.26;100.00
34925;BME280;21130;51.728;8.748;2023-06-10T06:18:32;100382.34;;;20.41;94.52
34925;BME280;21130;51.728;8.748;2023-06-10T06:20:59;100380.09;;;20.57;98.25
34925;BME280;21130;51.728;8.748;2023-06-10T06:23:27;100380.75;;;20.76;100.00
34925;BME280;21130;51.728;8.748;2023-06-10T06:25:53;100389.44;;;20.80;83.35
34925;BME280;21130;51.728;8.748;2023-06-10T06:28:20;100385.88;;;20.88;86.24
34925;BME280;21130;51.728;8.748;2023-06-10T06:30:48;100378.78;;;21.13;86.10
34925;BME280;21130;51.728;8.748;2023-06-10T06:33:14;100385.75;;;21.29;83.74
34925;BME280;21130;51.728;8.748;2023-06-10T06:35:40;100386.28;;;21.54;87.43
34925;BME280;21130;51.728;8.748;2023-06-10T06:38:07;100386.22;;;21.68;84.86
34925;BME280;21130;51.728;8.748;2023-06-10T06:40:34;100379.78;;;21.76;76.70
34925;BME280;21130;51.728;8.748;2023-06-10T06:43:01;100385.22;;;21.95;76.08
34925;BME280;21130;51.728;8.748;2023-06-10T06:45:27;100393.81;;;22.21;79.07
34925;BME280;21130;51.728;8.748;2023-06-10T06:47:54;100390.34;;;22.24;73.72
34925;BME280;21130;51.728;8.748;2023-06-10T06:50:21;100393.25;;;22.41;70.74
34925;BME280;21130;51.728;8.748;2023-06-10T06:52:47;100393.44;;;22.45;61.29
34925;BME280;21130;51.728;8.748;2023-06-10T06:55:14;100395.59;;;22.48;64.09
34925;BME280;21130;51.728;8.748;2023-06-10T06:57:41;100404.50;;;22.73;61.63
34925;BME280;21130;51.728;8.748;2023-06-10T07:00:08;100399.66;;;22.82;59.88
34925;BME280;21130;51.728;8.748;2023-06-10T07:02:35;100414.50;;;22.96;57.58
34925;BME280;21130;51.728;8.748;2023-06-10T07:05:01;100413.56;;;23.01;60.61
34925;BME280;21130;51.728;8.748;2023-06-10T07:07:28;100414.22;;;23.06;62.95
34925;BME280;21130;51.728;8.748;2023-06-10T07:09:55;100413.75;;;23.31;63.38
34925;BME280;21130;51.728;8.748;2023-06-10T07:12:21;100409.06;;;23.61;59.52
34925;BME280;21130;51.728;8.748;2023-06-10T07:14:50;100405.88;;;23.71;56.76
34925;BME280;21130;51.728;8.748;2023-06-10T07:17:17;100414.19;;;23.85;55.38
34925;BME280;21130;51.728;8.748;2023-06-10T07:19:44;100410.97;;;24.12;60.70
34925;BME280;21130;51.728;8.748;2023-06-10T07:22:10;100409.25;;;24.29;59.21
34925;BME280;21130;51.728;8.748;2023-06-10T07:24:36;100419.38;;;24.39;58.99
34925;BME280;21130;51.728;8.748;2023-06-10T07:27:03;100420.03;;;24.44;56.29
34925;BME280;21130;51.728;8.748;2023-06-10T07:29:30;100415.75;;;24.68;55.83
34925;BME280;21130;51.728;8.748;2023-06-10T07:31:58;100414.97;;;24.88;56.80
34925;BME280;21130;51.728;8.748;2023-06-10T07:34:25;100418.66;;;24.89;53.88
34925;BME280;21130;51.728;8.748;2023-06-10T07:36:51;100411.09;;;24.93;50.88
34925;BME280;21130;51.728;8.748;2023-06-10T07:39:18;100415.66;;;24.85;52.31
34925;BME280;21130;51.728;8.748;2023-06-10T07:41:46;100423.00;;;25.37;51.94
34925;BME280;21130;51.728;8.748;2023-06-10T07:44:14;100419.72;;;25.47;49.25
34925;BME280;21130;51.728;8.748;2023-06-10T07:46:40;100411.16;;;25.56;49.87
34925;BME280;21130;51.728;8.748;2023-06-10T07:49:08;100412.03;;;25.48;50.98
34925;BME280;21130;51.728;8.748;2023-06-10T07:51:35;100409.84;;;25.53;50.58
34925;BME280;21130;51.728;8.748;2023-06-10T07:54:02;100410.56;;;25.62;49.76
34925;BME280;21130;51.728;8.748;2023-06-10T07:56:29;100416.72;;;25.64;49.58
34925;BME280;21130;51.728;8.748;2023-06-10T07:58:55;100417.97;;;25.76;48.54
34925;BME280;21130;51.728;8.748;2023-06-10T08:01:22;100410.03;;;26.15;48.00
34925;BME280;21130;51.728;8.748;2023-06-10T08:03:48;100413.13;;;26.22;47.56
34925;BME280;21130;51.728;8.748;2023-06-10T08:06:16;100410.97;;;26.06;47.00
34925;BME280;21130;51.728;8.748;2023-06-10T08:08:43;100417.81;;;26.05;47.93
34925;BME280;21130;51.728;8.748;2023-06-10T08:11:11;100418.59;;;26.27;48.83
34925;BME280;21130;51.728;8.748;2023-06-10T08:13:38;100421.78;;;26.25;48.31
34925;BME280;21130;51.728;8.748;2023-06-10T08:16:05;100420.78;;;26.67;48.19
34925;BME280;21130;51.728;8.748;2023-06-10T08:18:32;100420.56;;;26.72;48.67
34925;BME280;21130;51.728;8.748;2023-06-10T08:20:59;100429.09;;;26.84;46.01
34925;BME280;21130;51.728;8.748;2023-06-10T08:23:27;100419.91;;;27.03;45.74
34925;BME280;21130;51.728;8.748;2023-06-10T08:25:53;100431.66;;;27.14;46.44
34925;BME280;21130;51.728;8.748;2023-06-10T08:28:19;100422.25;;;27.13;46.00
34925;BME280;21130;51.728;8.748;2023-06-10T08:30:46;100420.03;;;27.07;46.92
34925;BME280;21130;51.728;8.748;2023-06-10T08:33:13;100428.09;;;27.29;47.41
34925;BME280;21130;51.728;8.748;2023-06-10T08:35:39;100426.34;;;27.00;46.35
34925;BME280;21130;51.728;8.748;2023-06-10T08:38:05;100426.41;;;27.16;47.98
34925;BME280;21130;51.728;8.748;2023-06-10T08:40:33;100433.31;;;27.15;47.35
34925;BME280;21130;51.728;8.748;2023-06-10T08:43:05;100432.88;;;26.88;48.08
34925;BME280;21130;51.728;8.748;2023-06-10T08:45:34;100425.25;;;27.29;48.15
34925;BME280;21130;51.728;8.748;2023-06-10T08:48:03;100418.44;;;27.46;45.79
34925;BME280;21130;51.728;8.748;2023-06-10T08:50:33;100424.63;;;27.36;47.10
34925;BME280;21130;51.728;8.748;2023-06-10T08:53:00;100421.56;;;27.17;45.76
34925;BME280;21130;51.728;8.748;2023-06-10T08:55:31;100424.50;;;27.32;46.12
34925;BME280;21130;51.728;8.748;2023-06-10T08:58:00;100416.16;;;27.52;47.63
34925;BME280;21130;51.728;8.748;2023-06-10T09:00:28;100420.13;;;27.63;46.90
34925;BME280;21130;51.728;8.748;2023-06-10T09:02:56;100418.75;;;27.57;46.06
34925;BME280;21130;51.728;8.748;2023-06-10T09:05:22;100407.38;;;27.73;46.94
34925;BME280;21130;51.728;8.748;2023-06-10T09:07:51;100417.44;;;28.27;45.39
34925;BME280;21130;51.728;8.748;2023-06-10T09:10:18;100413.72;;;28.54;45.67
34925;BME280;21130;51.728;8.748;2023-06-10T09:12:44;100412.78;;;28.50;45.30
34925;BME280;21130;51.728;8.748;2023-06-10T09:15:12;100413.56;;;28.82;44.64
34925;BME280;21130;51.728;8.748;2023-06-10T09:17:40;100404.44;;;29.28;43.63
34925;BME280;21130;51.728;8.748;2023-06-10T09:20:26;100404.75;;;29.62;44.25
34925;BME280;21130;51.728;8.748;2023-06-10T09:22:56;100403.47;;;29.98;43.37
34925;BME280;21130;51.728;8.748;2023-06-10T09:25:34;100410.63;;;29.69;43.57
34925;BME280;21130;51.728;8.748;2023-06-10T09:28:02;100401.38;;;30.64;40.69
34925;BME280;21130;51.728;8.748;2023-06-10T09:30:31;100394.28;;;30.81;42.22
34925;BME280;21130;51.728;8.748;2023-06-10T09:33:00;100399.97;;;31.04;40.25
34925;BME280;21130;51.728;8.748;2023-06-10T09:35:29;100398.34;;;31.03;41.88
34925;BME280;21130;51.728;8.748;2023-06-10T09:37:57;100391.81;;;31.06;39.56
34925;BME280;21130;51.728;8.748;2023-06-10T09:40:24;100401.72;;;31.12;39.57
34925;BME280;21130;51.728;8.748;2023-06-10T09:42:53;100392.00;;;31.47;38.18
34925;BME280;21130;51.728;8.748;2023-06-10T09:45:20;100394.00;;;31.16;38.03
34925;BME280;21130;51.728;8.748;2023-06-10T09:47:51;100393.22;;;31.19;38.59
34925;BME280;21130;51.728;8.748;2023-06-10T09:50:18;100395.84;;;31.62;38.90
34925;BME280;21130;51.728;8.748;2023-06-10T09:52:46;100390.81;;;31.85;36.95
34925;BME280;21130;51.728;8.748;2023-06-10T09:55:13;100390.03;;;31.89;37.55
34925;BME280;21130;51.728;8.748;2023-06-10T09:57:40;100387.53;;;32.21;36.83
34925;BME280;21130;51.728;8.748;2023-06-10T10:00:11;100389.84;;;31.71;37.39
34925;BME280;21130;51.728;8.748;2023-06-10T10:02:44;100390.13;;;32.37;36.59
34925;BME280;21130;51.728;8.748;2023-06-10T10:05:14;100392.25;;;32.02;37.31
34925;BME280;21130;51.728;8.748;2023-06-10T10:07:41;100390.09;;;31.28;39.10
34925;BME280;21130;51.728;8.748;2023-06-10T10:10:08;100381.38;;;31.48;37.49
34925;BME280;21130;51.728;8.748;2023-06-10T10:12:36;100392.34;;;31.42;37.53
34925;BME280;21130;51.728;8.748;2023-06-10T10:15:05;100383.72;;;31.42;38.97
34925;BME280;21130;51.728;8.748;2023-06-10T10:17:34;100392.47;;;31.86;37.72
34925;BME280;21130;51.728;8.748;2023-06-10T10:20:03;100389.25;;;31.28;36.14
34925;BME280;21130;51.728;8.748;2023-06-10T10:22:37;100392.50;;;31.90;36.59
34925;BME280;21130;51.728;8.748;2023-06-10T10:25:09;100389.66;;;31.26;36.74
34925;BME280;21130;51.728;8.748;2023-06-10T10:27:41;100377.97;;;31.38;36.97
34925;BME280;21130;51.728;8.748;2023-06-10T10:30:11;100392.78;;;31.17;36.22
34925;BME280;21130;51.728;8.748;2023-06-10T10:32:40;100394.16;;;31.57;36.01
34925;BME280;21130;51.728;8.748;2023-06-10T10:35:14;100380.72;;;31.65;36.11
34925;BME280;21130;51.728;8.748;2023-06-10T10:37:44;100389.44;;;31.38;37.85
34925;BME280;21130;51.728;8.748;2023-06-10T10:40:12;100388.00;;;31.25;36.97
34925;BME280;21130;51.728;8.748;2023-06-10T10:42:40;100374.78;;;31.47;38.23
34925;BME280;21130;51.728;8.748;2023-06-10T10:45:08;100377.34;;;31.56;37.66
34925;BME280;21130;51.728;8.748;2023-06-10T10:47:36;100384.44;;;31.66;36.91
34925;BME280;21130;51.728;8.748;2023-06-10T10:50:14;100380.50;;;31.81;35.73
34925;BME280;21130;51.728;8.748;2023-06-10T10:52:53;100373.13;;;32.17;36.41
34925;BME280;21130;51.728;8.748;2023-06-10T10:55:20;100381.94;;;32.39;35.92
34925;BME280;21130;51.728;8.748;2023-06-10T10:57:54;100372.38;;;32.27;34.88
34925;BME280;21130;51.728;8.748;2023-06-10T11:00:26;100374.66;;;32.07;35.27
34925;BME280;21130;51.728;8.748;2023-06-10T11:02:53;100382.97;;;32.20;35.95
34925;BME280;21130;51.728;8.748;2023-06-10T11:05:31;100378.94;;;32.24;34.69
34925;BME280;21130;51.728;8.748;2023-06-10T11:08:01;100371.25;;;31.95;36.43
34925;BME280;21130;51.728;8.748;2023-06-10T11:10:31;100366.81;;;32.01;36.27
34925;BME280;21130;51.728;8.748;2023-06-10T11:12:58;100367.28;;;32.06;37.08
34925;BME280;21130;51.728;8.748;2023-06-10T11:15:27;100372.44;;;32.35;36.29
34925;BME280;21130;51.728;8.748;2023-06-10T11:18:12;100361.84;;;32.42;35.11
34925;BME280;21130;51.728;8.748;2023-06-10T11:20:51;100360.22;;;32.41;37.93
34925;BME280;21130;51.728;8.748;2023-06-10T11:23:37;100356.78;;;32.73;35.10
34925;BME280;21130;51.728;8.748;2023-06-10T11:26:15;100358.38;;;32.63;35.98
34925;BME280;21130;51.728;8.748;2023-06-10T11:29:01;100366.03;;;32.48;35.77
34925;BME280;21130;51.728;8.748;2023-06-10T11:31:30;100362.56;;;32.77;36.30
34925;BME280;21130;51.728;8.748;2023-06-10T11:33:58;100359.38;;;32.92;34.14
34925;BME280;21130;51.728;8.748;2023-06-10T11:36:26;100358.13;;;32.90;34.17
34925;BME280;21130;51.728;8.748;2023-06-10T11:38:56;100374.03;;;33.43;34.61
34925;BME280;21130;51.728;8.748;2023-06-10T11:41:23;100353.19;;;33.64;34.69
34925;BME280;21130;51.728;8.748;2023-06-10T11:43:50;100358.50;;;33.58;34.67
34925;BME280;21130;51.728;8.748;2023-06-10T11:46:16;100361.31;;;33.44;34.33
34925;BME280;21130;51.728;8.748;2023-06-10T11:48:48;100349.47;;;33.56;33.45
34925;BME280;21130;51.728;8.748;2023-06-10T11:51:15;100349.34;;;33.31;32.23
34925;BME280;21130;51.728;8.748;2023-06-10T11:53:43;100348.34;;;33.02;35.39
34925;BME280;21130;51.728;8.748;2023-06-10T11:56:11;100351.47;;;33.48;34.29
34925;BME280;21130;51.728;8.748;2023-06-10T11:58:41;100346.88;;;32.67;34.84
34925;BME280;21130;51.728;8.748;2023-06-10T12:01:09;100343.41;;;32.43;34.44
34925;BME280;21130;51.728;8.748;2023-06-10T12:03:37;100338.81;;;32.87;35.88
34925;BME280;21130;51.728;8.748;2023-06-10T12:06:05;100349.34;;;33.31;34.03
34925;BME280;21130;51.728;8.748;2023-06-10T12:08:57;100353.34;;;33.08;32.89
34925;BME280;21130;51.728;8.748;2023-06-10T12:11:24;100344.22;;;32.96;32.47
34925;BME280;21130;51.728;8.748;2023-06-10T12:13:51;100347.69;;;33.26;34.49
34925;BME280;21130;51.728;8.748;2023-06-10T12:16:18;100348.50;;;33.27;33.54
34925;BME280;21130;51.728;8.748;2023-06-10T12:18:46;100350.63;;;33.44;32.92
34925;BME280;21130;51.728;8.748;2023-06-10T12:21:23;100342.31;;;32.59;32.78
34925;BME280;21130;51.728;8.748;2023-06-10T12:24:04;100345.81;;;32.93;33.61
34925;BME280;21130;51.728;8.748;2023-06-10T12:26:40;100344.22;;;32.96;34.33
34925;BME280;21130;51.728;8.748;2023-06-10T12:29:20;100333.66;;;33.18;33.19
34925;BME280;21130;51.728;8.748;2023-06-10T12:31:59;100342.88;;;32.82;33.20
34925;BME280;21130;51.728;8.748;2023-06-10T12:34:35;100346.19;;;32.84;34.20
34925;BME280;21130;51.728;8.748;2023-06-10T12:37:02;100345.09;;;33.03;33.53
34925;BME280;21130;51.728;8.748;2023-06-10T12:39:30;100344.50;;;32.76;32.69
34925;BME280;21130;51.728;8.748;2023-06-10T12:41:58;100335.06;;;32.79;34.55
34925;BME280;21130;51.728;8.748;2023-06-10T12:44:29;100342.16;;;33.00;34.77
34925;BME280;21130;51.728;8.748;2023-06-10T12:46:55;100337.59;;;32.91;34.98
34925;BME280;21130;51.728;8.748;2023-06-10T12:49:22;100326.66;;;33.15;34.14
34925;BME280;21130;51.728;8.748;2023-06-10T12:51:49;100333.31;;;33.37;33.36
34925;BME280;21130;51.728;8.748;2023-06-10T12:54:15;100338.00;;;33.77;34.76